Terminal Aerodrome Forecast
Issued by NWS Louisville, KY

Home | Current Version | Previous Version | Text Only | Print | Product List | Glossary On
Versions: 1 2 3 4 5 6 7 8 9 10 11 12 13 14 15 16 17
998
FTUS43 KLMK 152333
TAFBWG
TAF
KBWG 152333Z 1600/1624 29007KT 3SM -SN SCT008 BKN022 OVC040
      TEMPO 1600/1602 1SM -SN BKN008
     FM160200 32010KT 3/4SM -SN BKN008 OVC018
     FM161400 30007KT P6SM BKN050 BKN080=

USA.gov is the U.S. government's official web portal to all federal, state and local government web resources and services.